Time;durP1;ratioP1;P1;durP2;ratioP2;P2;SDS_P1;SDS_P2;PMS_P1;PMS_P2;Temp;Humidity;BMP_temperature;BMP_pressure;BME280_temperature;BME280_humidity;BME280_pressure;Samples;Min_cycle;Max_cycle;Signal;HPM_P1;HPM_P2
2023/04/19 00:00:52;;;;;;;3.10;2.60;;;14.40;99.90;;;;;;5007637;28;20218;-67
2023/04/19 00:03:23;;;;;;;2.85;2.47;;;14.40;99.90;;;;;;4990843;28;20180;-68
2023/04/19 00:05:53;;;;;;;2.75;2.40;;;14.50;99.90;;;;;;5007628;28;20202;-66
2023/04/19 00:08:19;;;;;;;3.65;2.58;;;14.40;99.90;;;;;;5000759;28;20199;-69
2023/04/19 00:10:49;;;;;;;2.53;2.10;;;14.40;99.90;;;;;;5007779;28;20178;-69
2023/04/19 00:13:15;;;;;;;3.60;2.58;;;14.40;99.90;;;;;;5002549;28;20179;-69
2023/04/19 00:15:40;;;;;;;2.80;2.50;;;14.40;99.90;;;;;;5000162;28;20210;-68
2023/04/19 00:18:08;;;;;;;2.97;2.50;;;14.40;99.90;;;;;;5019870;28;20197;-68
2023/04/19 00:20:34;;;;;;;4.80;2.85;;;14.40;99.90;;;;;;5000555;28;20174;-70
2023/04/19 00:23:02;;;;;;;2.47;2.10;;;14.40;99.90;;;;;;5016792;28;20193;-67
2023/04/19 00:25:30;;;;;;;2.97;2.35;;;14.40;99.90;;;;;;4998929;28;20250;-68
2023/04/19 00:27:56;;;;;;;3.47;2.35;;;14.30;99.90;;;;;;5008477;28;20190;-67
2023/04/19 00:30:24;;;;;;;2.53;2.17;;;14.30;99.90;;;;;;5013536;28;20229;-68
2023/04/19 00:32:52;;;;;;;3.15;2.38;;;14.30;99.90;;;;;;5016194;28;20178;-66
2023/04/19 00:35:20;;;;;;;4.53;2.60;;;14.30;99.90;;;;;;5005855;28;20297;-67
2023/04/19 00:37:46;;;;;;;2.67;2.38;;;14.30;99.90;;;;;;5000932;28;20243;-68
2023/04/19 00:40:12;;;;;;;2.83;2.28;;;14.30;99.90;;;;;;5016389;28;20183;-68
2023/04/19 00:42:37;;;;;;;2.30;2.10;;;14.30;99.90;;;;;;5020105;28;20245;-68
2023/04/19 00:45:03;;;;;;;3.65;2.58;;;14.30;99.90;;;;;;4996176;28;20277;-66
2023/04/19 00:47:29;;;;;;;2.90;2.38;;;14.30;99.90;;;;;;5012214;28;20182;-68
2023/04/19 00:50:00;;;;;;;3.50;2.88;;;14.20;99.90;;;;;;5014682;28;20186;-67
2023/04/19 00:52:26;;;;;;;3.00;2.70;;;14.30;99.90;;;;;;5002206;28;20174;-67
2023/04/19 00:54:55;;;;;;;3.05;2.50;;;14.20;99.90;;;;;;4999537;28;20213;-68
2023/04/19 00:57:21;;;;;;;3.35;2.83;;;14.20;99.90;;;;;;4991654;28;20248;-68
2023/04/19 00:59:50;;;;;;;3.05;2.70;;;14.20;99.90;;;;;;4997208;28;20258;-69
2023/04/19 01:02:15;;;;;;;3.38;2.63;;;14.10;99.90;;;;;;5006444;28;20203;-69
2023/04/19 01:04:44;;;;;;;2.70;2.10;;;14.10;99.90;;;;;;5010754;28;20179;-69
2023/04/19 01:07:12;;;;;;;2.90;2.30;;;14.00;99.90;;;;;;5010149;28;20222;-69
2023/04/19 01:09:45;;;;;;;3.60;2.45;;;14.00;99.90;;;;;;4993131;28;20191;-69
2023/04/19 01:12:13;;;;;;;3.80;2.60;;;13.90;99.90;;;;;;5015717;28;20194;-69
2023/04/19 01:14:41;;;;;;;4.20;2.30;;;13.80;99.90;;;;;;5018338;28;20171;-70
2023/04/19 01:17:07;;;;;;;2.53;2.33;;;13.80;99.90;;;;;;4999713;28;20205;-69
2023/04/19 01:19:36;;;;;;;4.65;2.25;;;13.70;99.90;;;;;;4998288;28;20194;-68
2023/04/19 01:22:05;;;;;;;4.03;2.75;;;13.60;99.90;;;;;;5008727;28;20277;-67
2023/04/19 01:24:33;;;;;;;3.83;2.40;;;13.60;99.90;;;;;;5004548;28;20234;-68
2023/04/19 01:26:59;;;;;;;3.50;2.45;;;13.50;99.90;;;;;;4991472;28;20175;-68
2023/04/19 01:29:24;;;;;;;3.38;2.40;;;13.40;99.90;;;;;;5003000;28;20189;-68
2023/04/19 01:31:52;;;;;;;2.67;2.22;;;13.40;99.90;;;;;;5023920;28;20194;-68
2023/04/19 01:34:26;;;;;;;3.28;2.28;;;13.30;99.90;;;;;;4999397;28;20198;-68
2023/04/19 01:36:54;;;;;;;3.63;2.67;;;13.30;99.90;;;;;;4996859;28;20182;-68
2023/04/19 01:39:24;;;;;;;2.85;2.30;;;13.20;99.90;;;;;;4998650;28;20277;-68
2023/04/19 01:41:55;;;;;;;2.83;2.53;;;13.20;99.90;;;;;;5010196;28;20189;-68
2023/04/19 01:44:25;;;;;;;2.60;2.30;;;13.10;99.90;;;;;;5014337;28;20222;-69
2023/04/19 01:46:51;;;;;;;3.33;2.30;;;13.10;99.90;;;;;;5021085;28;20214;-69
2023/04/19 01:49:17;;;;;;;3.15;2.42;;;13.00;99.90;;;;;;5005057;28;20210;-64
2023/04/19 01:51:45;;;;;;;3.17;2.63;;;13.00;99.90;;;;;;4997977;28;20199;-65
2023/04/19 01:54:11;;;;;;;2.53;2.33;;;13.10;99.90;;;;;;4998885;28;20195;-65
2023/04/19 01:56:39;;;;;;;4.10;2.65;;;13.00;99.90;;;;;;5012223;28;20185;-68
2023/04/19 01:59:06;;;;;;;3.05;2.28;;;13.00;99.90;;;;;;5010743;28;20235;-65
2023/04/19 02:01:34;;;;;;;2.80;2.47;;;12.90;99.90;;;;;;4999397;28;20190;-65
2023/04/19 02:04:01;;;;;;;3.08;2.70;;;12.90;99.90;;;;;;5004984;28;20329;-68
2023/04/19 02:06:27;;;;;;;3.33;2.42;;;12.90;99.90;;;;;;5014184;28;20207;-69
2023/04/19 02:08:53;;;;;;;3.25;2.70;;;12.90;99.90;;;;;;5020204;28;20205;-68
2023/04/19 02:11:18;;;;;;;3.92;2.80;;;12.80;99.90;;;;;;5014580;28;20186;-68
2023/04/19 02:13:46;;;;;;;3.03;2.47;;;12.80;99.90;;;;;;5015546;28;20578;-65
2023/04/19 02:16:12;;;;;;;2.92;2.50;;;12.70;99.90;;;;;;5017419;28;20182;-69
2023/04/19 02:18:40;;;;;;;3.50;3.10;;;12.70;99.90;;;;;;4995833;28;20222;-68
2023/04/19 02:21:07;;;;;;;4.30;2.90;;;12.70;99.90;;;;;;5022774;28;20186;-67
2023/04/19 02:23:35;;;;;;;2.95;2.47;;;12.70;99.90;;;;;;5008841;28;20213;-68
2023/04/19 02:26:05;;;;;;;3.42;2.70;;;12.70;99.90;;;;;;4998477;28;20210;-67
2023/04/19 02:28:31;;;;;;;3.67;2.95;;;12.70;99.90;;;;;;4997111;28;20202;-68
2023/04/19 02:31:00;;;;;;;4.03;3.03;;;12.70;99.90;;;;;;5003211;28;20186;-67
2023/04/19 02:33:27;;;;;;;3.67;2.70;;;12.70;99.90;;;;;;5012834;28;20248;-68
2023/04/19 02:35:55;;;;;;;3.08;2.78;;;12.70;99.90;;;;;;5010176;28;20198;-68
2023/04/19 02:38:23;;;;;;;3.63;2.92;;;12.70;99.90;;;;;;5001045;28;20175;-68
2023/04/19 02:40:49;;;;;;;3.58;3.17;;;12.70;99.90;;;;;;5000224;28;20182;-68
2023/04/19 02:43:16;;;;;;;4.65;3.25;;;12.60;99.90;;;;;;4998152;28;20281;-68
2023/04/19 02:45:42;;;;;;;3.33;2.90;;;12.70;99.90;;;;;;5006131;28;20213;-69
2023/04/19 02:48:10;;;;;;;4.00;3.20;;;12.60;99.90;;;;;;4998404;28;20183;-68
2023/04/19 02:50:37;;;;;;;4.13;3.20;;;12.60;99.90;;;;;;4998030;28;20229;-68
2023/04/19 02:53:02;;;;;;;5.25;3.72;;;12.60;99.90;;;;;;4997932;28;20178;-67
2023/04/19 02:55:28;;;;;;;4.30;3.53;;;12.60;99.90;;;;;;5017852;28;20170;-63
2023/04/19 02:57:54;;;;;;;4.63;3.45;;;12.60;99.90;;;;;;4997859;28;20213;-68
2023/04/19 03:00:19;;;;;;;4.32;3.40;;;12.60;99.90;;;;;;5007832;28;20179;-68
2023/04/19 03:02:45;;;;;;;4.10;3.38;;;12.60;99.90;;;;;;4998954;28;20241;-69
2023/04/19 03:05:11;;;;;;;4.47;3.63;;;12.60;99.90;;;;;;5010287;28;20198;-69
2023/04/19 03:07:36;;;;;;;4.57;4.00;;;12.50;99.90;;;;;;4998206;28;20191;-68
2023/04/19 03:10:02;;;;;;;6.72;3.92;;;12.50;99.90;;;;;;5010888;28;20175;-68
2023/04/19 03:12:28;;;;;;;4.70;4.00;;;12.40;99.90;;;;;;4999895;28;20195;-68
2023/04/19 03:14:54;;;;;;;5.00;4.05;;;12.50;99.90;;;;;;5002238;28;20205;-68
2023/04/19 03:17:19;;;;;;;4.72;3.83;;;12.40;99.90;;;;;;4988628;28;20281;-69
2023/04/19 03:19:45;;;;;;;5.20;3.95;;;12.40;99.90;;;;;;4998437;28;20288;-67
2023/04/19 03:22:10;;;;;;;5.00;3.80;;;12.30;99.90;;;;;;4997138;28;20185;-69
2023/04/19 03:24:36;;;;;;;4.22;3.70;;;12.30;99.90;;;;;;5009547;28;20179;-69
2023/04/19 03:27:02;;;;;;;5.82;5.05;;;12.30;99.90;;;;;;4998046;28;20187;-68
2023/04/19 03:29:30;;;;;;;5.57;4.63;;;12.30;99.90;;;;;;4997700;28;20175;-69
2023/04/19 03:32:00;;;;;;;4.53;3.90;;;12.30;99.90;;;;;;4999404;28;20182;-67
2023/04/19 03:34:28;;;;;;;4.32;3.80;;;12.30;99.90;;;;;;5012853;28;20194;-68
2023/04/19 03:36:54;;;;;;;4.68;3.70;;;12.30;99.90;;;;;;5009559;28;20190;-67
2023/04/19 03:39:20;;;;;;;4.32;3.80;;;12.30;99.90;;;;;;5004052;28;20186;-68
2023/04/19 03:41:47;;;;;;;6.15;3.63;;;12.30;99.90;;;;;;5002819;28;20179;-68
2023/04/19 03:44:13;;;;;;;4.70;3.75;;;12.30;99.90;;;;;;4995576;28;20183;-67
2023/04/19 03:46:39;;;;;;;7.25;3.90;;;12.30;99.90;;;;;;5013950;28;20199;-69
2023/04/19 03:49:06;;;;;;;4.72;4.10;;;12.40;99.90;;;;;;4997844;28;20198;-68
2023/04/19 03:51:32;;;;;;;4.72;3.95;;;12.40;99.90;;;;;;4997287;28;20174;-69
2023/04/19 03:53:57;;;;;;;8.93;7.07;;;12.40;99.90;;;;;;4997493;28;20186;-68
2023/04/19 03:56:23;;;;;;;6.80;5.68;;;12.50;99.90;;;;;;4997393;28;20277;-69
2023/04/19 03:58:52;;;;;;;5.95;5.00;;;12.50;99.90;;;;;;4998703;28;20214;-66
2023/04/19 04:01:21;;;;;;;6.70;4.97;;;12.50;99.90;;;;;;4990068;28;20191;-69
2023/04/19 04:03:51;;;;;;;6.00;4.28;;;12.60;99.90;;;;;;5000935;28;20218;-68
2023/04/19 04:06:17;;;;;;;5.93;4.90;;;12.60;99.90;;;;;;5014417;28;20194;-69
2023/04/19 04:08:45;;;;;;;6.05;4.47;;;12.60;99.90;;;;;;5013070;28;20194;-69
2023/04/19 04:11:13;;;;;;;4.80;3.95;;;12.60;99.90;;;;;;5005745;28;20179;-68
2023/04/19 04:13:38;;;;;;;4.65;4.15;;;12.70;99.90;;;;;;4999055;28;20230;-70
2023/04/19 04:16:04;;;;;;;5.40;3.95;;;12.70;99.90;;;;;;5000902;28;20199;-68
2023/04/19 04:18:32;;;;;;;4.55;3.80;;;12.80;99.90;;;;;;4997622;28;20242;-69
2023/04/19 04:20:57;;;;;;;5.82;4.57;;;12.80;99.90;;;;;;5009579;28;20215;-69
2023/04/19 04:23:24;;;;;;;5.47;4.57;;;12.80;99.90;;;;;;5003535;28;20274;-69
2023/04/19 04:26:04;;;;;;;6.13;3.83;;;12.80;99.90;;;;;;5007805;28;20216;-68
2023/04/19 04:28:29;;;;;;;6.35;4.40;;;12.80;99.90;;;;;;5001434;28;20186;-68
2023/04/19 04:30:56;;;;;;;6.18;4.15;;;12.80;99.90;;;;;;5015487;28;20402;-69
2023/04/19 04:33:26;;;;;;;4.68;4.18;;;12.80;99.90;;;;;;5011389;28;20233;-71
2023/04/19 04:35:56;;;;;;;4.85;4.18;;;12.80;99.90;;;;;;4998924;28;20202;-69
2023/04/19 04:38:24;;;;;;;4.38;3.85;;;12.80;99.90;;;;;;5012087;28;20193;-69
2023/04/19 04:40:54;;;;;;;4.60;4.15;;;12.80;99.90;;;;;;4998086;28;20193;-67
2023/04/19 04:43:24;;;;;;;5.45;4.82;;;12.80;99.90;;;;;;5002039;28;20207;-64
2023/04/19 04:45:50;;;;;;;5.15;4.20;;;12.80;99.90;;;;;;5000071;28;20210;-66
2023/04/19 04:48:16;;;;;;;6.93;5.00;;;12.80;99.90;;;;;;5007021;28;20175;-68
2023/04/19 04:50:43;;;;;;;4.75;4.03;;;12.80;99.90;;;;;;4988623;28;20190;-67
2023/04/19 04:53:08;;;;;;;6.05;4.82;;;12.80;99.90;;;;;;4996809;28;20175;-69
2023/04/19 04:55:35;;;;;;;5.07;4.20;;;12.80;99.90;;;;;;5001334;28;20197;-68
2023/04/19 04:58:04;;;;;;;4.95;4.10;;;12.70;99.90;;;;;;4998590;28;20210;-67
2023/04/19 05:00:35;;;;;;;5.28;4.57;;;12.70;99.90;;;;;;4998736;28;20198;-68
2023/04/19 05:03:03;;;;;;;4.95;3.80;;;12.60;99.90;;;;;;4997911;28;20202;-66
2023/04/19 05:05:29;;;;;;;4.75;3.95;;;12.70;99.90;;;;;;5028454;28;20210;-68
2023/04/19 05:07:54;;;;;;;5.93;4.65;;;12.70;99.90;;;;;;4999635;28;20306;-69
2023/04/19 05:10:20;;;;;;;5.63;4.45;;;12.60;99.90;;;;;;5009753;28;20179;-67
2023/04/19 05:12:46;;;;;;;4.90;4.22;;;12.60;99.90;;;;;;4993605;28;20269;-69
2023/04/19 05:15:11;;;;;;;5.45;4.25;;;12.60;99.90;;;;;;5001110;28;20171;-68
2023/04/19 05:17:37;;;;;;;6.30;4.20;;;12.60;99.90;;;;;;4997257;28;20190;-68
2023/04/19 05:20:05;;;;;;;4.95;4.40;;;12.60;99.90;;;;;;4998765;28;20183;-68
2023/04/19 05:22:31;;;;;;;5.70;4.32;;;12.60;99.90;;;;;;5001327;28;20237;-68
2023/04/19 05:24:56;;;;;;;5.60;4.55;;;12.60;99.90;;;;;;5013244;28;20233;-69
2023/04/19 05:27:22;;;;;;;5.40;4.32;;;12.60;99.90;;;;;;4995566;28;20179;-69
2023/04/19 05:29:50;;;;;;;6.25;4.40;;;12.60;99.90;;;;;;5014215;28;20179;-72
2023/04/19 05:32:16;;;;;;;4.90;4.15;;;12.60;99.90;;;;;;5006641;28;20283;-71
2023/04/19 05:34:42;;;;;;;5.25;4.30;;;12.60;99.90;;;;;;5004947;28;20175;-72
2023/04/19 05:37:09;;;;;;;6.05;4.55;;;12.70;99.90;;;;;;4998565;28;20178;-72
2023/04/19 05:39:35;;;;;;;4.88;4.10;;;12.70;99.90;;;;;;4996160;28;20183;-73
2023/04/19 05:42:01;;;;;;;5.85;4.55;;;12.60;99.90;;;;;;4996314;28;20182;-70
2023/04/19 05:44:26;;;;;;;7.10;4.50;;;12.70;99.90;;;;;;4998666;28;20199;-68
2023/04/19 05:46:57;;;;;;;5.60;4.70;;;12.70;99.90;;;;;;4997856;28;20194;-69
2023/04/19 05:49:22;;;;;;;4.75;4.25;;;12.70;99.90;;;;;;5007523;28;20175;-69
2023/04/19 05:51:51;;;;;;;5.35;4.45;;;12.70;99.90;;;;;;5011475;28;20202;-68
2023/04/19 05:54:17;;;;;;;5.53;4.68;;;12.80;99.90;;;;;;4998045;28;20269;-71
2023/04/19 05:56:47;;;;;;;5.72;4.80;;;12.70;99.90;;;;;;5010441;28;20206;-69
2023/04/19 05:59:13;;;;;;;5.25;4.63;;;12.80;99.90;;;;;;5002846;28;20262;-65
2023/04/19 06:01:43;;;;;;;6.35;4.97;;;12.80;99.90;;;;;;5003822;28;20269;-69
2023/04/19 06:04:09;;;;;;;6.28;4.95;;;12.90;99.90;;;;;;5012580;28;20206;-69
2023/04/19 06:06:37;;;;;;;5.93;5.07;;;12.90;99.90;;;;;;4996656;28;20245;-68
2023/04/19 06:09:02;;;;;;;6.20;5.20;;;13.00;99.90;;;;;;5013950;28;20175;-69
2023/04/19 06:11:29;;;;;;;5.70;5.10;;;13.00;99.90;;;;;;4998364;28;20186;-68
2023/04/19 06:13:55;;;;;;;6.43;5.35;;;13.10;99.90;;;;;;4998267;28;20179;-69
2023/04/19 06:16:20;;;;;;;7.07;5.47;;;13.10;99.90;;;;;;4998247;28;20197;-69
2023/04/19 06:18:48;;;;;;;6.07;5.20;;;13.20;99.90;;;;;;4995225;28;20201;-66
2023/04/19 06:21:14;;;;;;;6.35;5.10;;;13.20;99.90;;;;;;4994805;28;20183;-69
2023/04/19 06:23:42;;;;;;;7.70;5.60;;;13.30;99.90;;;;;;4995016;28;20236;-69
2023/04/19 06:26:08;;;;;;;6.72;5.80;;;13.30;99.90;;;;;;5000283;28;20207;-69
2023/04/19 06:28:33;;;;;;;7.03;4.97;;;13.30;99.90;;;;;;4998076;28;20168;-67
2023/04/19 06:30:59;;;;;;;5.82;5.05;;;13.40;99.90;;;;;;4996116;28;20168;-69
2023/04/19 06:33:25;;;;;;;6.13;4.80;;;13.40;99.90;;;;;;4994143;28;20195;-69
2023/04/19 06:35:50;;;;;;;5.93;4.95;;;13.40;99.90;;;;;;4996781;28;20377;-69
2023/04/19 06:38:18;;;;;;;5.85;4.57;;;13.50;99.90;;;;;;4998405;28;20179;-69
2023/04/19 06:40:44;;;;;;;6.05;5.28;;;13.50;99.90;;;;;;5002993;28;20231;-68
2023/04/19 06:43:12;;;;;;;5.47;4.82;;;13.60;99.90;;;;;;5001223;28;20187;-69
2023/04/19 06:45:37;;;;;;;6.03;4.72;;;13.60;99.90;;;;;;4997510;28;20209;-67
2023/04/19 06:48:06;;;;;;;6.97;5.45;;;13.60;99.90;;;;;;5014102;28;20178;-68
2023/04/19 06:50:36;;;;;;;5.85;5.20;;;13.60;99.90;;;;;;5007551;28;20217;-69
2023/04/19 06:53:02;;;;;;;6.38;4.93;;;13.70;99.90;;;;;;4995363;28;20179;-67
2023/04/19 06:55:27;;;;;;;5.53;4.78;;;13.70;99.90;;;;;;5000657;28;20186;-69
2023/04/19 06:57:55;;;;;;;7.60;5.30;;;13.80;99.90;;;;;;5003558;28;20265;-69
2023/04/19 07:00:24;;;;;;;6.45;4.93;;;13.80;99.90;;;;;;5013554;28;20287;-68
2023/04/19 07:02:49;;;;;;;7.38;5.22;;;13.90;99.90;;;;;;5011940;28;20182;-69
2023/04/19 07:05:15;;;;;;;5.65;4.75;;;13.90;99.90;;;;;;4995410;28;20333;-69
2023/04/19 07:07:43;;;;;;;6.55;5.20;;;14.00;99.90;;;;;;5005800;28;20195;-69
2023/04/19 07:10:09;;;;;;;5.97;4.65;;;14.10;99.90;;;;;;5013009;28;20274;-68
2023/04/19 07:12:37;;;;;;;7.63;5.30;;;14.10;99.90;;;;;;4982486;28;20265;-71
2023/04/19 07:15:03;;;;;;;5.15;4.55;;;14.10;99.90;;;;;;4995089;28;20191;-69
2023/04/19 07:17:29;;;;;;;5.05;4.55;;;14.20;99.90;;;;;;5012099;28;20300;-69
2023/04/19 07:19:55;;;;;;;6.20;4.90;;;14.20;99.90;;;;;;4998371;28;20177;-64
2023/04/19 07:22:22;;;;;;;6.15;4.65;;;14.30;99.90;;;;;;4994739;28;20179;-69
2023/04/19 07:24:50;;;;;;;6.05;4.57;;;14.30;99.90;;;;;;4996842;28;20186;-65
2023/04/19 07:27:17;;;;;;;6.05;4.78;;;14.40;99.90;;;;;;4995100;28;20197;-68
2023/04/19 07:29:43;;;;;;;5.72;4.75;;;14.50;99.90;;;;;;5012289;28;20174;-69
2023/04/19 07:32:08;;;;;;;6.38;4.88;;;14.60;99.90;;;;;;5013686;28;20179;-69
2023/04/19 07:34:41;;;;;;;6.25;5.10;;;14.60;99.90;;;;;;4996451;28;20206;-68
2023/04/19 07:37:07;;;;;;;6.10;5.18;;;14.70;99.90;;;;;;5013244;28;20178;-69
2023/04/19 07:39:32;;;;;;;7.07;5.22;;;14.70;99.90;;;;;;5012854;28;20171;-69
2023/04/19 07:42:00;;;;;;;6.90;5.20;;;14.80;99.90;;;;;;5014008;28;20206;-69
2023/04/19 07:44:26;;;;;;;5.90;4.80;;;14.90;99.90;;;;;;5013143;28;20185;-67
2023/04/19 07:46:52;;;;;;;5.85;5.05;;;14.90;99.90;;;;;;5001408;28;20281;-69
2023/04/19 07:49:18;;;;;;;6.93;6.20;;;14.90;99.90;;;;;;5000781;28;20198;-68
2023/04/19 07:51:44;;;;;;;6.55;5.38;;;14.90;99.90;;;;;;5001303;28;20181;-69
2023/04/19 07:54:15;;;;;;;6.63;5.38;;;14.90;99.90;;;;;;5010612;28;20202;-68
2023/04/19 07:56:48;;;;;;;7.53;4.85;;;14.90;99.90;;;;;;5016679;28;20210;-69
2023/04/19 07:59:13;;;;;;;7.95;5.60;;;14.90;99.90;;;;;;4998071;28;20175;-69
2023/04/19 08:01:42;;;;;;;6.15;5.38;;;14.90;99.90;;;;;;4998098;28;20184;-70
2023/04/19 08:04:10;;;;;;;7.43;5.75;;;15.00;99.90;;;;;;4999124;28;20190;-69
2023/04/19 08:06:38;;;;;;;7.80;5.72;;;15.00;99.90;;;;;;5013672;28;20222;-70
2023/04/19 08:09:04;;;;;;;6.20;5.60;;;15.10;99.90;;;;;;5003565;28;20170;-71
2023/04/19 08:11:29;;;;;;;6.35;5.65;;;15.20;99.90;;;;;;4997810;28;20190;-70
2023/04/19 08:13:57;;;;;;;6.38;5.60;;;15.20;99.90;;;;;;5009692;28;20171;-69
2023/04/19 08:16:26;;;;;;;6.93;5.65;;;15.30;99.90;;;;;;5011273;28;20218;-69
2023/04/19 08:18:52;;;;;;;5.57;5.03;;;15.40;99.90;;;;;;5000706;28;20226;-67
2023/04/19 08:21:18;;;;;;;7.20;5.93;;;15.50;99.90;;;;;;5007052;28;20259;-68
2023/04/19 08:23:44;;;;;;;6.68;5.70;;;15.60;99.90;;;;;;5010992;28;20198;-69
2023/04/19 08:26:12;;;;;;;5.75;5.20;;;15.70;99.90;;;;;;5015095;28;20202;-67
2023/04/19 08:28:40;;;;;;;7.82;5.95;;;15.80;99.90;;;;;;5001206;28;20182;-69
2023/04/19 08:31:09;;;;;;;7.85;6.25;;;15.80;99.90;;;;;;4995204;28;20285;-69
2023/04/19 08:33:34;;;;;;;6.53;5.15;;;15.90;99.90;;;;;;5000784;28;20175;-69
2023/04/19 08:36:00;;;;;;;5.45;4.90;;;15.80;99.90;;;;;;5016706;28;20185;-69
2023/04/19 08:38:26;;;;;;;6.45;5.30;;;15.80;99.90;;;;;;4999500;28;20229;-68
2023/04/19 08:40:55;;;;;;;6.05;4.88;;;15.90;99.90;;;;;;5016676;28;20182;-69
2023/04/19 08:43:22;;;;;;;6.25;5.20;;;15.90;99.90;;;;;;5000245;28;20186;-70
2023/04/19 08:45:50;;;;;;;6.15;5.03;;;15.90;99.90;;;;;;5000003;28;20203;-69
2023/04/19 08:48:16;;;;;;;5.47;4.70;;;15.90;99.90;;;;;;5016122;28;20185;-69
2023/04/19 08:50:45;;;;;;;5.63;4.90;;;15.90;99.90;;;;;;5000027;28;20250;-71
2023/04/19 08:53:11;;;;;;;5.05;4.40;;;16.00;99.90;;;;;;5000754;28;20179;-70
2023/04/19 08:55:40;;;;;;;6.15;4.50;;;16.00;99.90;;;;;;4996925;28;20204;-69
2023/04/19 08:58:11;;;;;;;4.43;3.90;;;16.10;99.90;;;;;;4996633;28;20274;-68
2023/04/19 09:00:40;;;;;;;4.70;4.07;;;16.20;99.90;;;;;;5009668;28;20297;-70
2023/04/19 09:03:07;;;;;;;5.45;4.20;;;16.20;99.90;;;;;;5008734;28;20190;-67
2023/04/19 09:05:37;;;;;;;4.55;3.83;;;16.20;99.90;;;;;;4999482;28;20206;-69
2023/04/19 09:08:31;;;;;;;5.43;4.15;;;16.30;99.90;;;;;;5016743;28;20183;-69
2023/04/19 09:11:00;;;;;;;4.95;4.10;;;16.30;99.90;;;;;;5001552;28;20178;-70
2023/04/19 09:13:29;;;;;;;4.47;3.70;;;16.30;99.90;;;;;;5016892;28;20223;-71
2023/04/19 09:15:59;;;;;;;4.47;3.55;;;16.40;99.90;;;;;;4999761;28;20175;-69
2023/04/19 09:18:25;;;;;;;4.70;3.90;;;16.40;99.90;;;;;;5007285;28;20192;-70
2023/04/19 09:20:56;;;;;;;4.43;3.53;;;16.40;99.90;;;;;;5015189;28;20245;-70
2023/04/19 09:23:27;;;;;;;5.90;4.30;;;16.40;99.90;;;;;;4999019;28;20183;-69
2023/04/19 09:26:00;;;;;;;3.83;3.42;;;16.40;99.90;;;;;;5003660;28;20455;-70
2023/04/19 09:28:30;;;;;;;4.50;3.50;;;16.50;99.90;;;;;;5005479;28;20191;-69
2023/04/19 09:31:09;;;;;;;4.45;3.75;;;16.50;99.90;;;;;;4993278;28;20179;-69
2023/04/19 09:33:44;;;;;;;4.82;3.83;;;16.50;99.90;;;;;;4987845;28;20227;-69
2023/04/19 09:36:11;;;;;;;4.03;3.35;;;16.60;99.90;;;;;;4999128;28;20236;-70
2023/04/19 09:38:48;;;;;;;4.85;3.50;;;16.60;99.90;;;;;;4999236;28;20217;-70
2023/04/19 09:41:13;;;;;;;4.88;3.72;;;16.70;99.90;;;;;;4996149;28;20198;-68
2023/04/19 09:43:39;;;;;;;3.83;3.40;;;16.80;99.90;;;;;;5010857;28;20237;-70
2023/04/19 09:46:05;;;;;;;3.63;3.20;;;16.80;99.90;;;;;;5008769;28;20212;-70
2023/04/19 09:48:31;;;;;;;3.00;2.70;;;16.90;99.90;;;;;;5001062;28;20182;-69
2023/04/19 09:51:00;;;;;;;2.95;2.65;;;17.00;99.90;;;;;;5012797;28;20266;-71
2023/04/19 09:53:29;;;;;;;3.42;2.53;;;17.10;99.90;;;;;;5011810;28;20206;-70
2023/04/19 09:55:57;;;;;;;3.83;2.53;;;17.30;99.90;;;;;;4996094;28;20180;-69
2023/04/19 09:58:23;;;;;;;2.63;2.38;;;17.40;99.90;;;;;;4980555;28;20198;-69
2023/04/19 10:00:52;;;;;;;3.55;2.50;;;17.60;99.90;;;;;;4998908;28;20234;-69
2023/04/19 10:03:20;;;;;;;3.00;2.70;;;17.70;99.90;;;;;;5007817;28;20248;-70
2023/04/19 10:05:48;;;;;;;3.30;2.70;;;17.90;99.90;;;;;;4998552;28;20206;-67
2023/04/19 10:08:14;;;;;;;3.17;2.60;;;18.10;99.90;;;;;;4997530;28;20191;-69
2023/04/19 10:10:43;;;;;;;2.97;2.50;;;18.50;99.90;;;;;;4997637;28;20183;-70
2023/04/19 10:13:17;;;;;;;3.40;2.80;;;18.90;99.90;;;;;;5014813;28;20175;-69
2023/04/19 10:15:44;;;;;;;5.80;3.90;;;19.40;99.90;;;;;;5013444;28;20189;-70
2023/04/19 10:18:10;;;;;;;5.80;3.38;;;19.80;99.90;;;;;;4998725;28;20222;-70
2023/04/19 10:20:48;;;;;;;3.58;2.80;;;20.20;99.90;;;;;;4995281;28;20194;-70
2023/04/19 10:23:15;;;;;;;2.75;2.42;;;20.40;99.90;;;;;;4995055;28;20179;-70
2023/04/19 10:25:45;;;;;;;3.20;2.60;;;20.70;99.90;;;;;;5012279;28;20206;-69
2023/04/19 10:28:11;;;;;;;2.33;2.13;;;20.80;99.90;;;;;;4995340;28;20203;-69
2023/04/19 10:31:01;;;;;;;2.70;2.20;;;20.90;99.90;;;;;;5005729;28;20186;-70
2023/04/19 10:33:36;;;;;;;3.20;2.33;;;20.90;99.90;;;;;;5008801;28;20213;-70
2023/04/19 10:36:02;;;;;;;3.17;2.88;;;21.00;99.90;;;;;;4998841;28;20218;-69
2023/04/19 10:38:46;;;;;;;2.60;2.40;;;21.00;99.90;;;;;;4994538;28;20259;-69
2023/04/19 10:41:15;;;;;;;3.00;2.38;;;21.10;99.00;;;;;;4995087;28;20222;-67
2023/04/19 10:43:47;;;;;;;3.15;2.50;;;21.10;99.90;;;;;;5006997;28;20182;-70
2023/04/19 10:46:21;;;;;;;3.28;2.40;;;21.20;99.90;;;;;;4997237;28;20434;-69
2023/04/19 10:48:52;;;;;;;2.50;2.30;;;21.20;99.90;;;;;;5006958;28;20194;-71
2023/04/19 10:51:26;;;;;;;2.50;2.30;;;21.30;99.90;;;;;;4982618;28;20337;-67
2023/04/19 10:53:57;;;;;;;2.80;2.50;;;21.40;99.90;;;;;;5007026;28;20193;-69
2023/04/19 10:56:34;;;;;;;2.83;2.50;;;21.60;99.90;;;;;;4999469;28;20190;-72
2023/04/19 10:59:00;;;;;;;3.40;2.60;;;21.70;99.90;;;;;;4997089;28;20197;-70
2023/04/19 11:01:41;;;;;;;3.72;3.05;;;21.80;99.90;;;;;;5013340;28;20183;-69
2023/04/19 11:04:11;;;;;;;3.50;2.10;;;21.90;99.90;;;;;;5007816;28;20313;-70
2023/04/19 11:06:55;;;;;;;2.67;2.25;;;21.90;99.90;;;;;;4979764;28;20203;-67
2023/04/19 11:09:43;;;;;;;2.78;2.33;;;21.80;99.90;;;;;;5011871;28;20257;-67
2023/04/19 11:12:17;;;;;;;2.90;2.60;;;21.80;99.90;;;;;;5010230;28;20193;-67
2023/04/19 11:14:47;;;;;;;2.95;2.17;;;21.80;99.90;;;;;;5008556;28;20187;-71
2023/04/19 11:17:31;;;;;;;2.63;2.30;;;21.80;99.90;;;;;;5011701;28;20202;-66
2023/04/19 11:20:11;;;;;;;2.20;2.00;;;21.70;99.90;;;;;;5013353;28;20306;-69
2023/04/19 11:22:36;;;;;;;3.03;2.20;;;21.70;99.90;;;;;;5000784;28;20267;-68
2023/04/19 11:25:13;;;;;;;2.67;2.30;;;21.70;99.90;;;;;;4987900;28;20178;-68
2023/04/19 11:27:40;;;;;;;2.33;2.13;;;21.80;99.90;;;;;;5016656;28;20174;-70
2023/04/19 11:30:07;;;;;;;3.22;2.40;;;21.80;99.90;;;;;;5000714;28;20234;-70
2023/04/19 11:32:33;;;;;;;3.28;2.50;;;21.90;99.90;;;;;;5017253;28;20266;-70
2023/04/19 11:35:09;;;;;;;3.10;2.30;;;21.90;99.90;;;;;;5013490;28;20186;-67
2023/04/19 11:37:36;;;;;;;3.38;2.40;;;21.90;99.90;;;;;;4986576;28;20193;-68
2023/04/19 11:40:03;;;;;;;3.20;2.38;;;21.80;99.90;;;;;;5016476;28;20187;-64
2023/04/19 11:42:32;;;;;;;3.60;2.40;;;21.70;99.90;;;;;;5002650;28;20214;-69
2023/04/19 11:44:58;;;;;;;3.10;2.40;;;21.60;99.90;;;;;;4987729;28;20210;-70
2023/04/19 11:47:27;;;;;;;2.72;2.25;;;21.50;99.90;;;;;;5017537;28;20309;-69
2023/04/19 11:49:55;;;;;;;2.63;2.40;;;21.40;99.90;;;;;;5008674;28;20179;-69
2023/04/19 11:52:23;;;;;;;2.70;2.20;;;21.20;99.90;;;;;;5013204;28;20172;-69
2023/04/19 11:54:52;;;;;;;2.35;2.15;;;21.10;99.90;;;;;;5014137;28;20178;-69
2023/04/19 11:57:30;;;;;;;2.35;2.00;;;21.10;99.90;;;;;;5000768;28;20202;-67
2023/04/19 12:00:06;;;;;;;2.75;2.10;;;21.10;99.90;;;;;;5017536;28;20241;-69
2023/04/19 12:02:41;;;;;;;2.75;2.03;;;21.20;98.90;;;;;;5015313;28;20193;-70
2023/04/19 12:05:11;;;;;;;2.35;1.95;;;21.40;99.90;;;;;;5017305;28;20185;-69
2023/04/19 12:07:57;;;;;;;3.13;2.17;;;21.50;99.90;;;;;;4983485;28;20195;-69
2023/04/19 12:10:23;;;;;;;2.20;1.75;;;21.70;99.90;;;;;;5008391;28;20201;-70
2023/04/19 12:12:49;;;;;;;2.05;1.65;;;21.80;99.90;;;;;;5012361;28;20179;-71
2023/04/19 12:15:14;;;;;;;2.50;1.70;;;21.90;99.90;;;;;;4991277;28;20179;-68
2023/04/19 12:18:01;;;;;;;2.00;1.67;;;21.90;99.90;;;;;;5009325;28;20429;-66
2023/04/19 12:20:46;;;;;;;1.73;1.63;;;22.00;96.00;;;;;;5017628;28;20175;-69
2023/04/19 12:23:14;;;;;;;2.22;1.60;;;22.10;98.50;;;;;;5015523;28;20304;-70
2023/04/19 12:25:47;;;;;;;2.25;1.55;;;22.10;99.90;;;;;;5003471;28;20250;-69
2023/04/19 12:28:16;;;;;;;1.60;1.40;;;22.10;98.70;;;;;;5005467;28;20191;-69
2023/04/19 12:30:42;;;;;;;2.10;1.40;;;22.10;99.30;;;;;;5016515;28;20179;-70
2023/04/19 12:33:12;;;;;;;1.65;1.30;;;22.10;98.50;;;;;;4998861;28;20178;-69
2023/04/19 12:35:40;;;;;;;4.22;1.55;;;22.10;96.80;;;;;;4997148;28;20167;-70
2023/04/19 12:38:08;;;;;;;3.15;1.50;;;22.10;96.30;;;;;;5005561;28;20209;-70
2023/04/19 12:40:36;;;;;;;1.30;1.20;;;22.10;96.70;;;;;;4997656;28;20214;-69
2023/04/19 12:43:09;;;;;;;1.83;1.30;;;22.00;96.00;;;;;;5008975;28;20183;-70
2023/04/19 12:45:37;;;;;;;1.58;1.20;;;21.90;92.50;;;;;;4983507;28;20225;-69
2023/04/19 12:48:03;;;;;;;1.60;1.30;;;21.90;93.30;;;;;;4999963;28;20175;-68
2023/04/19 12:50:31;;;;;;;1.50;1.30;;;21.90;93.20;;;;;;4997618;28;20193;-71
2023/04/19 12:52:56;;;;;;;1.50;1.08;;;21.90;93.50;;;;;;5004221;28;20206;-70